Time;durP1;ratioP1;P1;durP2;ratioP2;P2;SDS_P1;SDS_P2;PMS_P1;PMS_P2;Temp;Humidity;BMP_temperature;BMP_pressure;BME280_temperature;BME280_humidity;BME280_pressure;Samples;Min_cycle;Max_cycle;Signal;HPM_P1;HPM_P2
2022/09/05 00:00:21;;;;;;;2.47;2.27;;;20.40;36.80;;;;;;10577105;28;20230;-75
2022/09/05 00:05:57;;;;;;;2.23;2.13;;;20.30;36.10;;;;;;10599687;27;20228;-75
2022/09/05 00:11:13;;;;;;;2.80;2.60;;;20.30;36.80;;;;;;10615319;27;20302;-75
2022/09/05 00:16:52;;;;;;;2.33;2.17;;;20.20;36.70;;;;;;10576641;27;20238;-74
2022/09/05 00:22:09;;;;;;;2.83;2.63;;;20.10;36.60;;;;;;10575907;28;20230;-76
2022/09/05 00:27:42;;;;;;;2.47;2.27;;;20.00;36.50;;;;;;10575732;27;20222;-75
2022/09/05 00:33:01;;;;;;;2.53;2.33;;;19.90;36.70;;;;;;10576070;27;20227;-75
2022/09/05 00:38:23;;;;;;;2.40;2.30;;;19.80;36.90;;;;;;10575286;27;20222;-75
2022/09/05 00:43:42;;;;;;;2.70;2.00;;;19.80;36.50;;;;;;10575061;28;20226;-75
2022/09/05 00:48:51;;;;;;;3.20;2.03;;;19.70;36.50;;;;;;10575066;27;20230;-74
2022/09/05 00:54:18;;;;;;;2.60;2.07;;;19.70;36.80;;;;;;10574608;28;20245;-75
2022/09/05 01:00:08;;;;;;;1.97;1.87;;;19.70;36.90;;;;;;10572583;28;20219;-76
2022/09/05 01:05:32;;;;;;;2.10;2.00;;;19.60;36.70;;;;;;10571187;28;20560;-75
2022/09/05 01:10:44;;;;;;;2.23;2.13;;;19.50;37.20;;;;;;10574093;28;20224;-75
2022/09/05 01:15:57;;;;;;;2.73;1.90;;;19.50;37.20;;;;;;10573922;28;20238;-75
2022/09/05 01:21:28;;;;;;;2.00;1.87;;;19.40;37.20;;;;;;10574068;27;20306;-75
2022/09/05 01:26:45;;;;;;;2.07;1.97;;;19.40;37.50;;;;;;10599250;27;20717;-75
2022/09/05 01:32:10;;;;;;;2.30;2.10;;;19.40;37.30;;;;;;10615921;27;20235;-76
2022/09/05 01:37:18;;;;;;;2.37;1.90;;;19.40;37.40;;;;;;10615667;27;20230;-75
2022/09/05 01:42:42;;;;;;;1.90;1.80;;;19.40;37.10;;;;;;10614456;27;20229;-75
2022/09/05 01:47:54;;;;;;;3.13;2.50;;;19.30;37.10;;;;;;10614102;27;20226;-75
2022/09/05 01:53:14;;;;;;;2.53;2.33;;;19.30;37.40;;;;;;10614430;27;20729;-75
2022/09/05 01:58:31;;;;;;;3.90;2.17;;;19.20;37.10;;;;;;10614896;27;20665;-74
2022/09/05 02:03:42;;;;;;;2.20;2.03;;;19.20;37.30;;;;;;10614147;27;20232;-75
2022/09/05 02:09:02;;;;;;;3.33;2.10;;;19.10;37.20;;;;;;10614536;27;20222;-76
2022/09/05 02:14:18;;;;;;;2.30;2.20;;;19.10;37.20;;;;;;10614250;27;20230;-76
2022/09/05 02:19:45;;;;;;;2.30;2.10;;;19.10;37.10;;;;;;10614779;27;20625;-76
2022/09/05 02:24:56;;;;;;;2.03;1.93;;;19.00;37.00;;;;;;10614346;27;20678;-75
2022/09/05 02:30:24;;;;;;;2.10;2.00;;;18.90;37.00;;;;;;10614068;27;20218;-75
2022/09/05 02:35:33;;;;;;;2.20;2.10;;;18.90;37.00;;;;;;10614222;27;20598;-75
2022/09/05 02:40:44;;;;;;;2.43;2.27;;;18.80;37.10;;;;;;10613907;27;20238;-75
2022/09/05 02:46:12;;;;;;;1.77;1.67;;;18.80;37.20;;;;;;10613761;27;20231;-76
2022/09/05 02:51:21;;;;;;;1.90;1.80;;;18.70;37.00;;;;;;10614112;27;20222;-75
2022/09/05 02:56:58;;;;;;;2.30;2.10;;;18.60;37.20;;;;;;10613605;27;20222;-75
2022/09/05 03:02:30;;;;;;;2.23;2.13;;;18.60;37.20;;;;;;10613296;27;20965;-75
2022/09/05 03:08:01;;;;;;;1.90;1.80;;;18.60;37.10;;;;;;10613818;27;20265;-76
2022/09/05 03:13:49;;;;;;;1.60;1.50;;;18.50;37.30;;;;;;10609036;27;20230;-75
2022/09/05 03:19:41;;;;;;;1.90;1.77;;;18.40;37.10;;;;;;10621642;27;20230;-75
2022/09/05 03:25:40;;;;;;;2.50;2.30;;;18.40;37.20;;;;;;10598494;27;20222;-75
2022/09/05 03:31:03;;;;;;;1.80;1.70;;;18.30;37.40;;;;;;10529849;28;20706;-75
2022/09/05 03:36:38;;;;;;;2.10;2.00;;;18.30;37.70;;;;;;10562092;27;20230;-76
2022/09/05 03:42:03;;;;;;;1.87;1.77;;;18.20;37.60;;;;;;10577608;28;20614;-75
2022/09/05 03:47:48;;;;;;;2.30;2.10;;;18.20;37.70;;;;;;10577302;27;20855;-75
2022/09/05 03:53:15;;;;;;;2.20;2.10;;;18.20;37.60;;;;;;10576968;27;20233;-75
2022/09/05 03:59:01;;;;;;;2.00;1.90;;;18.20;37.60;;;;;;10576361;27;20227;-76
2022/09/05 04:04:11;;;;;;;1.90;1.80;;;18.10;37.50;;;;;;10576363;28;20960;-76
2022/09/05 04:09:40;;;;;;;2.00;1.90;;;18.10;37.50;;;;;;10577030;27;20218;-76
2022/09/05 04:14:58;;;;;;;2.07;1.97;;;18.10;37.40;;;;;;10576226;27;20261;-75
2022/09/05 04:20:10;;;;;;;2.10;1.90;;;18.00;37.40;;;;;;10576333;28;20265;-75
2022/09/05 04:25:18;;;;;;;1.90;1.80;;;17.90;37.50;;;;;;10575355;28;20229;-75
2022/09/05 04:30:37;;;;;;;1.70;1.60;;;17.90;37.30;;;;;;10576060;27;20230;-75
2022/09/05 04:35:56;;;;;;;1.93;1.83;;;17.90;37.60;;;;;;10575930;27;20254;-76
2022/09/05 04:41:02;;;;;;;1.90;1.67;;;17.80;37.60;;;;;;10575623;28;20222;-76
2022/09/05 04:46:14;;;;;;;1.90;1.80;;;17.80;37.30;;;;;;10574815;27;20229;-76
2022/09/05 04:51:51;;;;;;;3.33;1.60;;;17.70;37.60;;;;;;10575137;28;20236;-75
2022/09/05 04:57:13;;;;;;;1.97;1.87;;;17.70;37.50;;;;;;10574490;28;20231;-75
2022/09/05 05:02:26;;;;;;;2.43;2.20;;;17.70;37.70;;;;;;10574605;27;20714;-75
2022/09/05 05:07:56;;;;;;;2.70;2.50;;;17.70;37.90;;;;;;10574485;27;20236;-76
2022/09/05 05:13:06;;;;;;;2.53;2.33;;;17.60;38.10;;;;;;10573812;27;20231;-76
2022/09/05 05:18:33;;;;;;;2.40;2.30;;;17.50;38.30;;;;;;10573628;28;20227;-76
2022/09/05 05:24:07;;;;;;;2.43;2.20;;;17.40;38.30;;;;;;10573677;28;20616;-75
2022/09/05 05:29:18;;;;;;;2.67;2.47;;;17.30;38.70;;;;;;10573332;28;20223;-74
2022/09/05 05:34:26;;;;;;;3.63;2.40;;;17.30;38.90;;;;;;10573131;28;20741;-76
2022/09/05 05:39:32;;;;;;;2.60;2.40;;;17.30;39.20;;;;;;10572780;28;20227;-75
2022/09/05 05:44:38;;;;;;;2.90;2.30;;;17.40;39.50;;;;;;10573202;28;20756;-76
2022/09/05 05:50:02;;;;;;;2.70;2.50;;;17.30;39.40;;;;;;10573095;28;20231;-76
2022/09/05 05:55:28;;;;;;;2.70;2.50;;;17.40;40.30;;;;;;10572899;28;20653;-76
2022/09/05 06:01:39;;;;;;;3.07;2.80;;;17.40;40.50;;;;;;10572814;28;20241;-76
2022/09/05 06:07:00;;;;;;;2.87;2.60;;;17.50;40.50;;;;;;10516722;28;20239;-76
2022/09/05 06:12:43;;;;;;;3.73;3.00;;;17.60;41.00;;;;;;10572433;28;20236;-77
2022/09/05 06:19:06;;;;;;;4.07;3.17;;;17.70;40.90;;;;;;10572257;28;20261;-77
2022/09/05 06:24:43;;;;;;;5.30;3.40;;;17.80;41.10;;;;;;10572180;28;20250;-75
2022/09/05 06:29:58;;;;;;;3.97;3.67;;;17.90;41.80;;;;;;10581819;27;20225;-75
2022/09/05 06:35:21;;;;;;;4.73;3.93;;;18.00;42.30;;;;;;10615826;27;20230;-78
2022/09/05 06:40:30;;;;;;;4.73;4.33;;;18.20;42.70;;;;;;10615618;27;20217;-77
2022/09/05 06:45:59;;;;;;;4.17;3.77;;;18.20;42.50;;;;;;10615537;27;20230;-76
2022/09/05 06:51:52;;;;;;;4.40;4.10;;;18.30;43.40;;;;;;10620034;27;20230;-76
2022/09/05 06:57:54;;;;;;;4.40;4.07;;;18.50;43.10;;;;;;10490775;28;20911;-76
2022/09/05 07:03:21;;;;;;;3.83;3.57;;;18.60;43.70;;;;;;10548023;27;20716;-76
2022/09/05 07:08:38;;;;;;;4.90;4.57;;;18.80;44.40;;;;;;10615339;27;20300;-76
2022/09/05 07:13:49;;;;;;;3.93;3.63;;;19.00;45.00;;;;;;10579011;27;20592;-76
2022/09/05 07:19:05;;;;;;;4.37;3.87;;;19.20;45.00;;;;;;10579169;27;20603;-76
2022/09/05 07:24:12;;;;;;;4.00;3.70;;;19.40;45.50;;;;;;10578466;27;20236;-76
2022/09/05 07:29:30;;;;;;;4.63;4.23;;;19.60;44.50;;;;;;10593749;27;20226;-76
2022/09/05 07:34:36;;;;;;;5.23;4.70;;;19.80;45.10;;;;;;10579437;27;20721;-77
2022/09/05 07:39:44;;;;;;;4.87;4.47;;;20.00;44.70;;;;;;10586962;27;20222;-77
2022/09/05 07:44:55;;;;;;;4.93;4.43;;;20.10;44.40;;;;;;10596467;27;20226;-75
2022/09/05 07:50:05;;;;;;;4.27;3.87;;;20.30;45.00;;;;;;10618323;27;20309;-76
2022/09/05 07:55:33;;;;;;;4.77;3.90;;;20.50;44.60;;;;;;10602441;27;20283;-76
2022/09/05 08:00:58;;;;;;;3.90;3.60;;;20.70;44.60;;;;;;10620150;27;20241;-76
2022/09/05 08:06:09;;;;;;;5.43;3.93;;;20.90;44.00;;;;;;10599635;27;20234;-75
2022/09/05 08:11:14;;;;;;;4.50;4.10;;;21.10;45.00;;;;;;10593703;27;20317;-76
2022/09/05 08:16:28;;;;;;;4.10;3.73;;;21.40;44.20;;;;;;10578718;27;20721;-76
2022/09/05 08:21:41;;;;;;;3.73;3.47;;;21.60;43.90;;;;;;10589131;27;20940;-76
2022/09/05 08:26:49;;;;;;;3.93;3.63;;;21.80;44.70;;;;;;10604059;27;20836;-76
2022/09/05 08:31:56;;;;;;;3.33;3.10;;;22.00;44.10;;;;;;10593443;27;20230;-75
2022/09/05 08:37:02;;;;;;;2.63;2.43;;;22.20;44.00;;;;;;10608358;27;20222;-74
2022/09/05 08:42:19;;;;;;;3.10;2.90;;;22.40;43.80;;;;;;10610136;27;20774;-75
2022/09/05 08:47:29;;;;;;;3.60;3.30;;;22.80;44.10;;;;;;10596375;27;20261;-74
2022/09/05 08:53:10;;;;;;;2.57;2.43;;;23.10;43.70;;;;;;10571593;27;20257;-74
2022/09/05 08:58:53;;;;;;;2.80;2.60;;;23.40;43.50;;;;;;10572474;27;20222;-74
2022/09/05 09:04:22;;;;;;;2.90;2.70;;;23.80;43.10;;;;;;10607646;27;20226;-75
2022/09/05 09:09:56;;;;;;;3.77;2.80;;;24.20;42.50;;;;;;10575170;28;20281;-75
2022/09/05 09:15:02;;;;;;;2.03;1.93;;;24.50;42.30;;;;;;10582621;27;20237;-74
2022/09/05 09:20:15;;;;;;;2.10;2.00;;;24.90;41.00;;;;;;10594517;27;20588;-74
2022/09/05 09:25:23;;;;;;;2.17;2.07;;;25.20;40.10;;;;;;10616162;27;20307;-74
2022/09/05 09:30:33;;;;;;;1.80;1.70;;;25.50;39.70;;;;;;10611745;27;20226;-74
2022/09/05 09:35:44;;;;;;;1.87;1.77;;;25.80;39.00;;;;;;10609041;27;20245;-74
2022/09/05 09:41:28;;;;;;;2.77;1.97;;;26.10;38.20;;;;;;10600299;27;20233;-75
2022/09/05 09:46:41;;;;;;;2.10;1.90;;;26.40;38.70;;;;;;10616002;27;20712;-74
2022/09/05 09:52:18;;;;;;;1.80;1.70;;;26.60;36.90;;;;;;10615820;27;20260;-76
2022/09/05 09:57:59;;;;;;;1.80;1.70;;;26.80;36.60;;;;;;10614573;27;20730;-72
2022/09/05 10:03:37;;;;;;;1.80;1.70;;;27.00;36.30;;;;;;10607055;27;20238;-74
2022/09/05 10:09:17;;;;;;;8.77;4.03;;;27.20;35.40;;;;;;10556199;28;20881;-74
2022/09/05 10:14:59;;;;;;;1.90;1.80;;;27.40;35.10;;;;;;10568230;27;20219;-70
2022/09/05 10:20:59;;;;;;;1.57;1.47;;;27.60;34.50;;;;;;10528406;28;20222;-74
2022/09/05 10:26:40;;;;;;;1.60;1.50;;;27.80;34.00;;;;;;10575730;28;20236;-77
2022/09/05 10:31:55;;;;;;;1.60;1.50;;;28.00;32.70;;;;;;10583662;28;20714;-79
2022/09/05 10:37:20;;;;;;;1.67;1.50;;;28.10;31.90;;;;;;10585104;28;20231;-79
2022/09/05 10:42:33;;;;;;;1.63;1.53;;;28.30;32.90;;;;;;10574629;28;20609;-78
2022/09/05 10:48:06;;;;;;;2.60;1.60;;;28.40;31.70;;;;;;10563665;28;20279;-78
2022/09/05 10:53:29;;;;;;;1.70;1.60;;;28.60;30.60;;;;;;10558023;28;20238;-77
2022/09/05 10:58:58;;;;;;;1.70;1.60;;;28.70;30.60;;;;;;10556153;28;20306;-77
2022/09/05 11:04:38;;;;;;;1.73;1.67;;;28.80;30.80;;;;;;10531578;28;20235;-76
2022/09/05 11:10:02;;;;;;;1.60;1.50;;;28.90;30.20;;;;;;10535806;28;20235;-78
2022/09/05 11:15:12;;;;;;;1.60;1.50;;;28.90;30.30;;;;;;10538134;28;20227;-77
2022/09/05 11:20:40;;;;;;;2.70;1.40;;;28.90;30.80;;;;;;10537042;28;20223;-79
2022/09/05 11:25:47;;;;;;;1.83;1.73;;;29.00;30.90;;;;;;10540360;28;20240;-79
2022/09/05 11:30:54;;;;;;;1.70;1.60;;;29.00;29.70;;;;;;10570042;28;20235;-78
2022/09/05 11:36:02;;;;;;;1.63;1.53;;;29.10;29.60;;;;;;10570072;28;20234;-79
2022/09/05 11:42:22;;;;;;;2.23;1.50;;;29.10;29.90;;;;;;10588179;27;20223;-77
2022/09/05 11:48:00;;;;;;;1.67;1.50;;;29.10;30.30;;;;;;10510388;28;20223;-78
2022/09/05 11:53:50;;;;;;;2.33;1.83;;;29.20;30.00;;;;;;10582363;27;20713;-78
2022/09/05 11:59:15;;;;;;;2.63;1.83;;;29.20;29.50;;;;;;10591489;28;20733;-79
2022/09/05 12:04:48;;;;;;;1.43;1.33;;;29.30;29.40;;;;;;10589873;28;20233;-78
2022/09/05 12:10:35;;;;;;;1.40;1.40;;;29.30;28.60;;;;;;10590385;28;20238;-78
2022/09/05 12:15:52;;;;;;;1.60;1.50;;;29.30;29.00;;;;;;10590355;27;20250;-80
2022/09/05 12:21:25;;;;;;;1.70;1.60;;;29.30;28.60;;;;;;10591179;28;20227;-79
2022/09/05 12:26:35;;;;;;;1.60;1.50;;;29.40;28.40;;;;;;10591202;28;20223;-79
2022/09/05 12:32:00;;;;;;;1.60;1.50;;;29.40;28.20;;;;;;10587800;27;20258;-78
2022/09/05 12:37:33;;;;;;;1.70;1.60;;;29.40;28.20;;;;;;10578286;27;20223;-78
2022/09/05 12:43:00;;;;;;;1.40;1.40;;;29.40;27.80;;;;;;10577050;28;20718;-79
2022/09/05 12:48:27;;;;;;;1.80;1.70;;;29.50;28.50;;;;;;10545609;28;20223;-78
2022/09/05 12:53:45;;;;;;;1.70;1.60;;;29.50;28.40;;;;;;10570805;28;20234;-78
2022/09/05 12:58:51;;;;;;;1.80;1.70;;;29.50;27.70;;;;;;10556154;28;20245;-77
2022/09/05 13:04:20;;;;;;;1.97;1.87;;;29.50;27.80;;;;;;10585836;28;20231;-79
2022/09/05 13:09:38;;;;;;;1.80;1.70;;;29.60;27.10;;;;;;10586166;28;20313;-79
2022/09/05 13:15:06;;;;;;;1.80;1.70;;;29.70;26.40;;;;;;10551799;28;20227;-76
2022/09/05 13:20:33;;;;;;;1.47;1.40;;;29.70;26.50;;;;;;10531908;28;20253;-77
2022/09/05 13:25:42;;;;;;;1.60;1.50;;;29.70;26.10;;;;;;10537901;28;20242;-78
2022/09/05 13:30:54;;;;;;;1.60;1.50;;;29.70;26.00;;;;;;10555201;28;20235;-77
2022/09/05 13:36:22;;;;;;;1.87;1.63;;;29.70;24.70;;;;;;10584938;27;20234;-78
2022/09/05 13:41:52;;;;;;;1.70;1.60;;;29.70;25.30;;;;;;10566667;28;20215;-78
2022/09/05 13:47:01;;;;;;;1.60;1.50;;;29.70;24.60;;;;;;10584905;28;20226;-78
2022/09/05 13:52:33;;;;;;;2.47;1.70;;;29.70;25.30;;;;;;10588227;28;20239;-76
2022/09/05 13:57:43;;;;;;;1.50;1.40;;;29.80;25.00;;;;;;10588550;28;20579;-78
2022/09/05 14:03:02;;;;;;;1.50;1.50;;;29.80;24.80;;;;;;10588930;27;20309;-77
2022/09/05 14:08:44;;;;;;;1.70;1.60;;;29.80;24.70;;;;;;10588917;27;20234;-77
2022/09/05 14:14:08;;;;;;;1.80;1.70;;;29.90;25.10;;;;;;10589107;28;20261;-77
2022/09/05 14:24:48;;;;;;;1.53;1.43;;;30.10;25.40;;;;;;10587234;28;20256;-78
2022/09/05 14:30:03;;;;;;;1.53;1.43;;;30.10;24.40;;;;;;10585173;28;20245;-77
2022/09/05 14:35:31;;;;;;;1.57;1.47;;;30.10;24.60;;;;;;10585118;28;20227;-77
2022/09/05 14:41:37;;;;;;;1.60;1.50;;;30.10;23.60;;;;;;10585689;28;20702;-77
2022/09/05 14:47:16;;;;;;;1.57;1.47;;;30.10;24.40;;;;;;10583865;28;20380;-78
2022/09/05 14:52:37;;;;;;;1.90;1.80;;;30.10;23.80;;;;;;10585131;28;20231;-78
2022/09/05 14:57:48;;;;;;;1.70;1.50;;;30.10;24.40;;;;;;10575630;28;20896;-76
2022/09/05 15:03:15;;;;;;;1.73;1.63;;;30.10;24.30;;;;;;10570841;28;20241;-78
2022/09/05 15:08:22;;;;;;;1.83;1.70;;;30.10;24.20;;;;;;10570925;28;20300;-76
2022/09/05 15:13:55;;;;;;;1.80;1.70;;;30.20;24.10;;;;;;10578189;28;20711;-77
2022/09/05 15:19:01;;;;;;;1.77;1.67;;;30.10;22.90;;;;;;10580364;27;20362;-76
2022/09/05 15:24:19;;;;;;;1.80;1.70;;;30.10;23.20;;;;;;10579611;27;20314;-77
2022/09/05 15:29:27;;;;;;;1.60;1.50;;;30.10;23.40;;;;;;10578426;27;20226;-76
2022/09/05 15:34:33;;;;;;;1.53;1.43;;;30.10;23.00;;;;;;10584335;28;21066;-77
2022/09/05 15:39:40;;;;;;;1.70;1.60;;;30.10;23.10;;;;;;10580665;27;20285;-76
2022/09/05 15:44:46;;;;;;;2.10;1.50;;;30.10;23.70;;;;;;10583503;28;20251;-78
2022/09/05 15:50:13;;;;;;;1.80;1.70;;;30.10;23.10;;;;;;10577254;28;20237;-76
2022/09/05 15:55:26;;;;;;;1.63;1.53;;;30.20;22.60;;;;;;10573924;28;20230;-76
2022/09/05 16:00:40;;;;;;;2.07;1.90;;;30.20;23.00;;;;;;10533694;28;20588;-76
2022/09/05 16:05:58;;;;;;;1.43;1.33;;;30.30;22.20;;;;;;10534492;28;20227;-76
2022/09/05 16:11:30;;;;;;;1.60;1.50;;;30.20;22.20;;;;;;10534336;28;20231;-77
2022/09/05 16:17:00;;;;;;;1.70;1.60;;;30.30;22.80;;;;;;10536816;28;20227;-77
2022/09/05 16:22:28;;;;;;;1.70;1.60;;;30.30;22.90;;;;;;10534228;28;20303;-76
2022/09/05 16:27:56;;;;;;;1.83;1.40;;;30.30;22.60;;;;;;10533484;28;20231;-76
2022/09/05 16:33:04;;;;;;;2.90;1.97;;;30.30;23.40;;;;;;10532824;28;20598;-76
2022/09/05 16:38:18;;;;;;;3.80;1.97;;;30.20;23.80;;;;;;10535694;28;20248;-76
2022/09/05 16:43:47;;;;;;;4.37;2.17;;;30.20;23.60;;;;;;10534420;28;20227;-76
2022/09/05 16:48:56;;;;;;;3.30;2.00;;;30.10;23.70;;;;;;10534123;28;20741;-77
2022/09/05 16:54:08;;;;;;;1.90;1.80;;;30.10;23.80;;;;;;10533624;28;20224;-77
2022/09/05 16:59:16;;;;;;;1.87;1.77;;;30.00;23.80;;;;;;10533481;28;20584;-76
2022/09/05 17:04:25;;;;;;;1.90;1.80;;;29.90;24.10;;;;;;10532215;28;20235;-75
2022/09/05 17:09:42;;;;;;;2.83;2.00;;;29.70;24.40;;;;;;10534692;28;20231;-77
2022/09/05 17:14:48;;;;;;;1.90;1.80;;;29.70;24.50;;;;;;10534077;28;20237;-77
2022/09/05 17:19:52;;;;;;;2.30;2.10;;;29.60;24.70;;;;;;10533536;28;20608;-77
2022/09/05 17:25:17;;;;;;;2.20;2.00;;;29.50;24.70;;;;;;10532731;28;20231;-76
2022/09/05 17:31:01;;;;;;;1.80;1.70;;;29.30;25.30;;;;;;10531730;28;20243;-76
2022/09/05 17:36:39;;;;;;;2.17;2.03;;;29.20;25.40;;;;;;10529407;28;20222;-76
2022/09/05 17:42:07;;;;;;;1.90;1.80;;;29.10;25.60;;;;;;10532454;28;20276;-76
2022/09/05 17:47:17;;;;;;;4.67;2.00;;;28.90;25.60;;;;;;10532779;28;20227;-76
2022/09/05 17:52:22;;;;;;;2.20;2.00;;;28.80;26.10;;;;;;10530880;28;20285;-76
2022/09/05 17:57:40;;;;;;;2.00;1.90;;;28.70;26.00;;;;;;10537011;28;20243;-76
2022/09/05 18:02:54;;;;;;;2.43;2.23;;;28.50;26.10;;;;;;10531710;28;20742;-77
2022/09/05 18:07:59;;;;;;;1.70;1.60;;;28.30;26.00;;;;;;10531655;28;20223;-77
2022/09/05 18:13:18;;;;;;;2.20;1.93;;;28.10;26.20;;;;;;10531061;28;20231;-76
2022/09/05 18:18:35;;;;;;;2.10;1.90;;;27.90;26.70;;;;;;10531369;28;20352;-76
2022/09/05 18:24:02;;;;;;;4.07;2.30;;;27.70;26.70;;;;;;10531344;28;20734;-77
2022/09/05 18:29:15;;;;;;;2.10;2.00;;;27.50;26.90;;;;;;10531025;28;20727;-76
2022/09/05 18:34:44;;;;;;;3.30;2.70;;;27.30;27.50;;;;;;10531243;28;20234;-77
2022/09/05 18:40:04;;;;;;;2.80;2.47;;;27.10;27.10;;;;;;10530892;28;20227;-76
2022/09/05 18:45:15;;;;;;;3.03;2.83;;;27.00;27.30;;;;;;10534271;28;20222;-76
2022/09/05 18:50:21;;;;;;;4.03;2.70;;;26.80;27.60;;;;;;10539369;28;20641;-77
2022/09/05 18:55:30;;;;;;;3.23;3.00;;;26.80;27.60;;;;;;10539232;28;20250;-76
2022/09/05 19:00:56;;;;;;;2.73;2.53;;;26.60;27.60;;;;;;10538879;28;20230;-76
2022/09/05 19:06:04;;;;;;;2.30;2.20;;;26.50;28.10;;;;;;10538880;28;20817;-77
2022/09/05 19:11:31;;;;;;;2.50;2.30;;;26.40;28.10;;;;;;10538061;28;20227;-77
2022/09/05 19:16:38;;;;;;;2.40;2.30;;;26.30;28.30;;;;;;10538677;28;20222;-77
2022/09/05 19:21:52;;;;;;;3.40;2.50;;;26.20;28.50;;;;;;10538165;28;20220;-76
2022/09/05 19:27:17;;;;;;;2.83;2.30;;;26.10;28.50;;;;;;10537912;28;20230;-76
2022/09/05 19:32:42;;;;;;;2.73;2.40;;;26.00;28.50;;;;;;10537711;28;20234;-76
2022/09/05 19:38:10;;;;;;;2.60;2.50;;;25.80;28.60;;;;;;10537452;28;20231;-76
2022/09/05 19:43:18;;;;;;;2.70;2.50;;;25.70;29.00;;;;;;10537542;28;20261;-77
2022/09/05 19:48:52;;;;;;;3.60;3.00;;;25.60;29.00;;;;;;10537451;28;20231;-77
2022/09/05 19:53:56;;;;;;;3.83;3.53;;;25.40;28.90;;;;;;10536910;28;20243;-77
2022/09/05 19:59:18;;;;;;;3.67;3.37;;;25.30;28.80;;;;;;10535520;28;20755;-77
2022/09/05 20:04:25;;;;;;;3.57;3.30;;;25.10;29.30;;;;;;10536543;28;20259;-76
2022/09/05 20:09:30;;;;;;;3.33;3.13;;;24.80;29.30;;;;;;10537597;28;20257;-76
2022/09/05 20:14:36;;;;;;;3.70;3.40;;;24.50;29.80;;;;;;10540558;28;20737;-76
2022/09/05 20:19:40;;;;;;;3.57;3.30;;;24.20;29.60;;;;;;10536050;28;20231;-77
2022/09/05 20:24:47;;;;;;;3.43;3.13;;;23.90;30.30;;;;;;10529768;28;20235;-77
2022/09/05 20:29:55;;;;;;;3.80;3.40;;;23.60;30.90;;;;;;10519462;28;20231;-76
2022/09/05 20:35:02;;;;;;;3.47;3.17;;;23.50;31.50;;;;;;10518292;28;20231;-76
2022/09/05 20:40:26;;;;;;;4.93;3.67;;;23.40;31.60;;;;;;10516094;28;20222;-76
2022/09/05 20:45:52;;;;;;;3.80;3.50;;;23.30;31.00;;;;;;10520114;28;20224;-77
2022/09/05 20:51:20;;;;;;;4.43;3.40;;;23.30;31.80;;;;;;10521874;28;20224;-76
2022/09/05 20:56:47;;;;;;;3.90;3.50;;;23.20;32.10;;;;;;10521640;28;20228;-77
2022/09/05 21:02:00;;;;;;;3.87;3.57;;;23.10;31.70;;;;;;10521960;28;20238;-76
2022/09/05 21:07:18;;;;;;;3.70;3.40;;;23.00;31.70;;;;;;10520026;28;20720;-77
2022/09/05 21:12:24;;;;;;;3.60;3.10;;;22.80;32.30;;;;;;10521304;28;20235;-78
2022/09/05 21:17:30;;;;;;;3.07;2.77;;;22.70;32.30;;;;;;10524401;28;20899;-75
2022/09/05 21:22:39;;;;;;;3.40;3.10;;;22.60;32.00;;;;;;10523594;28;20232;-75
2022/09/05 21:27:56;;;;;;;3.37;3.07;;;22.60;32.80;;;;;;10524555;28;20721;-74
2022/09/05 21:33:06;;;;;;;3.20;2.90;;;22.60;32.90;;;;;;10526072;28;20237;-74
2022/09/05 21:38:25;;;;;;;3.03;2.83;;;22.50;32.70;;;;;;10525325;28;20276;-75
2022/09/05 21:43:38;;;;;;;3.20;2.90;;;22.60;32.80;;;;;;10524175;28;20227;-74
2022/09/05 21:49:06;;;;;;;3.17;2.87;;;22.40;32.60;;;;;;10525898;28;20291;-75
2022/09/05 21:54:13;;;;;;;3.20;3.00;;;22.30;32.40;;;;;;10524057;28;20235;-76
2022/09/05 21:59:37;;;;;;;3.03;2.77;;;22.30;33.30;;;;;;10525023;28;20289;-75
2022/09/05 22:04:52;;;;;;;3.33;3.03;;;22.30;32.60;;;;;;10524871;28;20231;-76
2022/09/05 22:09:58;;;;;;;3.40;3.20;;;22.30;32.70;;;;;;10523110;28;20930;-76
2022/09/05 22:15:02;;;;;;;3.30;3.10;;;22.20;33.30;;;;;;10523621;28;20578;-75
2022/09/05 22:20:25;;;;;;;3.03;2.83;;;22.30;32.90;;;;;;10521601;28;20223;-74
2022/09/05 22:25:33;;;;;;;3.00;2.77;;;22.20;32.70;;;;;;10522560;28;20234;-76
2022/09/05 22:30:38;;;;;;;3.07;2.80;;;22.20;33.50;;;;;;10522002;28;20770;-74
2022/09/05 22:35:42;;;;;;;3.07;2.87;;;22.20;32.80;;;;;;10521884;28;20279;-74
2022/09/05 22:40:47;;;;;;;3.40;2.80;;;22.20;33.00;;;;;;10522374;28;20656;-75
2022/09/05 22:45:55;;;;;;;2.90;2.70;;;22.10;33.60;;;;;;10521513;28;20236;-76
2022/09/05 22:50:58;;;;;;;2.67;2.57;;;22.20;33.80;;;;;;10522101;28;20289;-75
2022/09/05 22:56:05;;;;;;;2.90;2.70;;;22.10;33.20;;;;;;10521696;28;20315;-76
2022/09/05 23:01:09;;;;;;;2.83;2.63;;;22.10;33.80;;;;;;10521336;28;20227;-75
2022/09/05 23:06:13;;;;;;;2.97;2.77;;;22.10;33.40;;;;;;10522053;28;20258;-75
2022/09/05 23:11:19;;;;;;;3.00;2.80;;;22.10;33.40;;;;;;10521439;28;20254;-74
2022/09/05 23:16:22;;;;;;;2.97;2.73;;;22.10;33.80;;;;;;10520801;28;20246;-76
2022/09/05 23:21:26;;;;;;;3.03;2.83;;;22.00;33.50;;;;;;10521756;28;20228;-75
2022/09/05 23:26:30;;;;;;;3.07;2.87;;;22.00;33.50;;;;;;10520493;28;20227;-75
2022/09/05 23:31:33;;;;;;;3.03;2.83;;;21.90;33.60;;;;;;10524562;28;20237;-74
2022/09/05 23:36:37;;;;;;;3.07;2.87;;;21.90;33.60;;;;;;10528903;28;20224;-74
2022/09/05 23:41:41;;;;;;;2.83;2.57;;;21.80;33.50;;;;;;10527798;28;20250;-76
2022/09/05 23:46:45;;;;;;;2.97;2.77;;;21.80;34.20;;;;;;10528556;28;20699;-76
2022/09/05 23:51:48;;;;;;;3.30;3.10;;;21.70;34.00;;;;;;10527487;28;20238;-76
2022/09/05 23:56:53;;;;;;;2.90;2.70;;;21.60;33.90;;;;;;10527824;28;20227;-72
